createdAt,value
2022-08-22T00:00:24.189Z,71.66
2022-08-22T00:01:47.145Z,71.75
2022-08-22T00:02:42.335Z,63.25
2022-08-22T00:02:47.029Z,69.69
2022-08-22T00:02:52.803Z,62.60
2022-08-22T00:02:55.896Z,71.63
2022-08-22T00:02:58.023Z,71.72
2022-08-22T00:02:59.904Z,62.90
2022-08-22T00:03:00.233Z,62.65
2022-08-22T00:03:08.440Z,69.87
2022-08-22T00:03:10.809Z,71.02
2022-08-22T00:03:28.961Z,71.55
2022-08-22T00:04:48.957Z,71.70
2022-08-22T00:06:14.161Z,71.64
2022-08-22T00:07:19.087Z,71.56
2022-08-22T00:08:28.242Z,71.48
2022-08-22T00:09:31.858Z,71.43
2022-08-22T00:10:40.683Z,71.48
2022-08-22T00:11:49.403Z,71.46
2022-08-22T00:12:52.445Z,71.42
2022-08-22T00:14:15.647Z,71.46
2022-08-22T00:15:42.464Z,71.60
2022-08-22T00:16:51.724Z,71.55
2022-08-22T00:18:03.014Z,71.56
2022-08-22T00:19:17.165Z,71.64
2022-08-22T00:20:39.141Z,71.71
2022-08-22T00:21:44.156Z,71.67
2022-08-22T00:22:59.388Z,71.61
2022-08-22T00:24:25.799Z,71.61
2022-08-22T00:25:42.654Z,71.64
2022-08-22T00:26:46.723Z,71.56
2022-08-22T00:28:10.119Z,71.48
2022-08-22T00:29:15.586Z,71.53
2022-08-22T00:30:19.993Z,71.53
2022-08-22T00:31:26.609Z,71.41
2022-08-22T00:32:39.740Z,71.58
2022-08-22T00:33:47.020Z,71.45
2022-08-22T00:35:17.224Z,71.58
2022-08-22T00:36:31.230Z,71.42
2022-08-22T00:37:57.135Z,71.49
2022-08-22T00:39:03.024Z,71.38
2022-08-22T00:40:09.116Z,71.52
2022-08-22T00:41:23.511Z,71.48
2022-08-22T00:42:37.614Z,71.48
2022-08-22T00:44:01.353Z,71.29
2022-08-22T00:45:17.654Z,71.40
2022-08-22T00:46:23.487Z,71.48
2022-08-22T00:47:36.501Z,71.42
2022-08-22T00:48:42.505Z,71.42
2022-08-22T00:50:04.399Z,71.48
2022-08-22T00:51:19.818Z,71.56
2022-08-22T00:52:41.605Z,71.42
2022-08-22T00:53:46.764Z,71.43
2022-08-22T00:54:50.124Z,71.47
2022-08-22T00:55:53.147Z,71.50
2022-08-22T00:57:11.383Z,71.45
2022-08-22T00:58:14.983Z,71.56
2022-08-22T00:59:29.936Z,71.58
2022-08-22T01:00:39.663Z,71.83
2022-08-22T01:02:05.636Z,71.68
2022-08-22T01:03:08.898Z,71.85
2022-08-22T01:04:22.112Z,71.69
2022-08-22T01:05:25.149Z,71.72
2022-08-22T01:06:28.143Z,71.73
2022-08-22T01:07:43.446Z,71.82
2022-08-22T01:09:05.274Z,71.80
2022-08-22T01:10:14.863Z,71.88
2022-08-22T01:11:27.195Z,72.05
2022-08-22T01:12:46.048Z,71.99
2022-08-22T01:14:18.818Z,71.98
2022-08-22T01:15:27.160Z,72.09
2022-08-22T01:16:48.673Z,71.91
2022-08-22T01:18:05.069Z,71.93
2022-08-22T01:19:27.039Z,71.91
2022-08-22T01:20:47.620Z,71.92
2022-08-22T01:22:29.363Z,71.98
2022-08-22T01:23:50.915Z,71.95
2022-08-22T01:25:21.913Z,72.04
2022-08-22T01:26:40.640Z,71.96
2022-08-22T01:28:01.632Z,72.06
2022-08-22T01:29:35.873Z,72.05
2022-08-22T01:30:43.762Z,72.09
2022-08-22T01:31:49.680Z,72.11
2022-08-22T01:32:59.353Z,72.16
2022-08-22T01:34:21.227Z,72.15
2022-08-22T01:35:42.584Z,72.14
2022-08-22T01:36:53.250Z,72.12
2022-08-22T01:37:59.385Z,72.23
2022-08-22T01:39:02.647Z,72.08
2022-08-22T01:40:18.566Z,72.14
2022-08-22T01:41:22.960Z,72.17
2022-08-22T01:42:25.937Z,72.23
2022-08-22T01:43:59.548Z,72.11
2022-08-22T01:45:23.334Z,71.99
2022-08-22T01:46:34.134Z,72.12
2022-08-22T01:47:37.923Z,71.98
2022-08-22T01:48:56.593Z,72.10
2022-08-22T01:50:17.849Z,72.05
2022-08-22T01:51:39.862Z,71.94
2022-08-22T01:52:47.979Z,71.93
2022-08-22T01:53:57.897Z,72.00
2022-08-22T01:55:10.818Z,71.96
2022-08-22T01:56:18.569Z,71.91
2022-08-22T01:57:23.035Z,71.79
2022-08-22T01:58:28.477Z,71.84
2022-08-22T01:59:42.608Z,71.79
2022-08-22T02:00:58.071Z,71.80
2022-08-22T02:02:20.502Z,71.72
2022-08-22T02:03:27.828Z,71.70
2022-08-22T02:04:42.718Z,71.82
2022-08-22T02:06:21.062Z,71.72
2022-08-22T02:07:49.981Z,71.73
2022-08-22T02:09:20.362Z,71.73
2022-08-22T02:10:38.784Z,71.69
2022-08-22T02:11:50.429Z,71.75
2022-08-22T02:12:56.073Z,71.86
2022-08-22T02:14:03.620Z,71.81
2022-08-22T02:15:15.188Z,71.81
2022-08-22T02:16:20.871Z,71.96
2022-08-22T02:17:29.288Z,71.92
2022-08-22T02:18:42.311Z,71.94
2022-08-22T02:19:48.926Z,71.80
2022-08-22T02:21:04.250Z,71.83
2022-08-22T02:22:28.412Z,71.83
2022-08-22T02:23:37.228Z,71.82
2022-08-22T02:25:01.000Z,71.80
2022-08-22T02:26:13.906Z,71.83
2022-08-22T02:27:24.905Z,71.80
2022-08-22T02:28:57.335Z,71.77
2022-08-22T02:30:15.777Z,71.79
2022-08-22T02:31:23.428Z,71.83
2022-08-22T02:32:46.878Z,71.94
2022-08-22T02:33:54.054Z,71.92
2022-08-22T02:35:03.743Z,71.96
2022-08-22T02:36:23.148Z,71.97
2022-08-22T02:37:35.348Z,71.94
2022-08-22T02:38:48.999Z,71.83
2022-08-22T02:40:11.135Z,71.85
2022-08-22T02:41:22.983Z,71.98
2022-08-22T02:42:38.220Z,71.92
2022-08-22T02:43:53.069Z,71.82
2022-08-22T02:45:00.897Z,71.84
2022-08-22T02:46:24.294Z,71.88
2022-08-22T02:47:32.718Z,71.84
2022-08-22T02:48:48.864Z,71.85
2022-08-22T02:50:13.733Z,71.89
2022-08-22T02:51:24.517Z,71.90
2022-08-22T02:52:50.742Z,71.97
2022-08-22T02:54:02.294Z,71.98
2022-08-22T02:55:15.925Z,72.01
2022-08-22T02:56:22.519Z,72.05
2022-08-22T02:57:39.314Z,72.07
2022-08-22T02:58:42.448Z,72.12
2022-08-22T03:00:06.040Z,72.23
2022-08-22T03:01:29.975Z,72.14
2022-08-22T03:02:37.239Z,72.10
2022-08-22T03:03:45.185Z,72.11
2022-08-22T03:04:55.183Z,72.07
2022-08-22T03:06:01.589Z,72.09
2022-08-22T03:07:11.853Z,72.06
2022-08-22T03:08:21.818Z,72.08
2022-08-22T03:09:35.369Z,72.17
2022-08-22T03:10:41.903Z,72.11
2022-08-22T03:11:51.353Z,72.14
2022-08-22T03:13:17.442Z,72.19
2022-08-22T03:14:28.366Z,72.29
2022-08-22T03:15:34.408Z,72.09
2022-08-22T03:16:58.542Z,72.12
2022-08-22T03:18:20.046Z,72.06
2022-08-22T03:19:28.923Z,72.25
2022-08-22T03:20:44.249Z,72.18
2022-08-22T03:22:06.955Z,72.22
2022-08-22T03:23:24.275Z,72.32
2022-08-22T03:24:27.218Z,72.30
2022-08-22T03:25:34.064Z,72.25
2022-08-22T03:26:58.788Z,72.28
2022-08-22T03:28:21.863Z,72.19
2022-08-22T03:29:30.943Z,72.30
2022-08-22T03:30:37.044Z,72.37
2022-08-22T03:31:49.344Z,72.38
2022-08-22T03:32:52.914Z,72.34
2022-08-22T03:34:14.749Z,72.31
2022-08-22T03:35:23.839Z,72.34
2022-08-22T03:36:28.664Z,72.20
2022-08-22T03:37:40.873Z,72.27
2022-08-22T03:38:56.472Z,72.27
2022-08-22T03:40:18.494Z,72.24
2022-08-22T03:41:24.618Z,72.30
2022-08-22T03:42:46.244Z,72.34
2022-08-22T03:43:55.508Z,72.37
2022-08-22T03:45:07.024Z,72.46
2022-08-22T03:46:13.099Z,72.47
2022-08-22T03:47:20.838Z,72.57
2022-08-22T03:48:44.103Z,72.53
2022-08-22T03:50:11.234Z,72.61
2022-08-22T03:51:21.524Z,72.64
2022-08-22T03:53:03.193Z,72.61
2022-08-22T03:54:15.083Z,72.69
2022-08-22T03:55:30.907Z,72.58
2022-08-22T03:56:33.919Z,72.58
2022-08-22T03:57:55.660Z,72.63
2022-08-22T03:58:58.845Z,72.63
2022-08-22T04:00:10.383Z,72.68
2022-08-22T04:01:33.745Z,72.66
2022-08-22T04:02:44.246Z,72.64
2022-08-22T04:04:07.152Z,72.84
2022-08-22T04:05:34.037Z,72.72
2022-08-22T04:07:28.320Z,72.70
2022-08-22T04:08:55.809Z,72.67
2022-08-22T04:10:07.494Z,72.49
2022-08-22T04:11:19.293Z,72.70
2022-08-22T04:12:22.320Z,72.69
2022-08-22T04:13:43.700Z,72.63
2022-08-22T04:15:08.447Z,72.83
2022-08-22T04:16:25.234Z,72.61
2022-08-22T04:17:43.966Z,72.76
2022-08-22T04:19:11.576Z,72.73
2022-08-22T04:20:26.571Z,72.83
2022-08-22T04:21:29.539Z,72.88
2022-08-22T04:22:51.456Z,73.09
2022-08-22T04:24:09.439Z,72.99
2022-08-22T04:25:17.447Z,72.91
2022-08-22T04:26:26.493Z,73.03
2022-08-22T04:27:34.940Z,72.90
2022-08-22T04:28:40.256Z,72.78
2022-08-22T04:29:47.264Z,72.93
2022-08-22T04:30:53.269Z,72.59
2022-08-22T04:32:19.576Z,72.69
2022-08-22T04:33:26.775Z,72.82
2022-08-22T04:34:36.051Z,73.01
2022-08-22T04:35:43.311Z,72.88
2022-08-22T04:36:50.958Z,72.68
2022-08-22T04:37:59.031Z,72.68
2022-08-22T04:39:05.333Z,72.81
2022-08-22T04:40:24.674Z,73.08
2022-08-22T04:41:28.443Z,73.20
2022-08-22T04:42:35.518Z,73.26
2022-08-22T04:43:46.990Z,73.26
2022-08-22T04:44:49.932Z,72.97
2022-08-22T04:46:05.342Z,72.96
2022-08-22T04:47:20.712Z,72.74
2022-08-22T04:48:35.579Z,72.94
2022-08-22T04:49:43.897Z,73.01
2022-08-22T04:50:56.913Z,73.02
2022-08-22T04:52:12.379Z,73.05
2022-08-22T04:53:15.457Z,73.15
2022-08-22T04:54:31.199Z,73.20
2022-08-22T04:55:47.225Z,73.10
2022-08-22T04:56:53.437Z,73.22
2022-08-22T04:58:09.118Z,73.06
2022-08-22T04:59:16.516Z,73.14
2022-08-22T05:00:19.638Z,73.01
2022-08-22T05:01:41.424Z,73.20
2022-08-22T05:02:49.358Z,73.14
2022-08-22T05:03:58.740Z,73.09
2022-08-22T05:05:13.228Z,72.95
2022-08-22T05:06:19.293Z,73.00
2022-08-22T05:07:27.024Z,73.11
2022-08-22T05:08:39.899Z,72.77
2022-08-22T05:09:45.862Z,72.72
2022-08-22T05:10:50.628Z,72.86
2022-08-22T05:11:55.708Z,72.61
2022-08-22T05:13:02.216Z,72.71
2022-08-22T05:14:27.563Z,72.78
2022-08-22T05:15:36.808Z,72.63
2022-08-22T05:16:42.356Z,72.71
2022-08-22T05:17:47.391Z,72.52
2022-08-22T05:18:55.422Z,72.69
2022-08-22T05:20:02.361Z,72.62
2022-08-22T05:21:08.144Z,72.78
2022-08-22T05:22:19.447Z,72.66
2022-08-22T05:23:36.182Z,72.78
2022-08-22T05:24:42.593Z,72.68
2022-08-22T05:25:48.775Z,72.77
2022-08-22T05:26:53.939Z,72.92
2022-08-22T05:28:20.928Z,72.75
2022-08-22T05:29:27.340Z,72.73
2022-08-22T05:30:31.574Z,72.64
2022-08-22T05:31:39.354Z,72.80
2022-08-22T05:32:52.170Z,72.76
2022-08-22T05:33:58.690Z,72.69
2022-08-22T05:35:02.483Z,72.77
2022-08-22T05:36:11.158Z,72.78
2022-08-22T05:37:25.542Z,72.59
2022-08-22T05:38:31.956Z,72.54
2022-08-22T05:39:37.131Z,72.76
2022-08-22T05:40:41.120Z,72.67
2022-08-22T05:41:45.009Z,72.69
2022-08-22T05:42:51.338Z,72.65
2022-08-22T05:43:55.068Z,72.79
2022-08-22T05:44:58.220Z,72.66
2022-08-22T05:46:01.618Z,72.59
2022-08-22T05:47:04.921Z,72.63
2022-08-22T05:48:12.405Z,72.65
2022-08-22T05:49:22.615Z,72.50
2022-08-22T05:50:31.748Z,72.47
2022-08-22T05:51:34.940Z,72.46
2022-08-22T05:53:00.265Z,72.47
2022-08-22T05:54:21.876Z,72.66
2022-08-22T05:55:37.138Z,72.59
2022-08-22T05:56:44.174Z,72.72
2022-08-22T05:57:52.486Z,72.72
2022-08-22T05:59:03.095Z,72.66
2022-08-22T06:00:13.319Z,72.79
2022-08-22T06:01:33.868Z,72.73
2022-08-22T06:02:56.294Z,72.82
2022-08-22T06:04:25.794Z,72.86
2022-08-22T06:05:32.038Z,72.93
2022-08-22T06:06:40.878Z,72.92
2022-08-22T06:07:46.725Z,72.90
2022-08-22T06:08:56.318Z,72.87
2022-08-22T06:10:02.411Z,72.96
2022-08-22T06:11:33.661Z,72.96
2022-08-22T06:12:43.466Z,73.15
2022-08-22T06:14:08.328Z,73.15
2022-08-22T06:15:12.102Z,73.20
2022-08-22T06:16:17.213Z,73.37
2022-08-22T06:17:41.543Z,73.32
2022-08-22T06:18:45.428Z,73.35
2022-08-22T06:19:49.905Z,73.39
2022-08-22T06:20:55.569Z,73.37
2022-08-22T06:21:58.895Z,73.46
2022-08-22T06:23:03.126Z,73.52
2022-08-22T06:24:08.819Z,73.57
2022-08-22T06:25:14.110Z,73.69
2022-08-22T06:26:20.463Z,73.63
2022-08-22T06:27:34.419Z,73.52
2022-08-22T06:28:55.670Z,73.61
2022-08-22T06:30:00.742Z,73.67
2022-08-22T06:31:06.403Z,73.52
2022-08-22T06:32:15.168Z,73.64
2022-08-22T06:33:23.102Z,73.50
2022-08-22T06:34:34.628Z,73.54
2022-08-22T06:35:59.842Z,73.49
2022-08-22T06:37:04.814Z,73.66
2022-08-22T06:38:08.426Z,73.62
2022-08-22T06:39:30.333Z,73.75
2022-08-22T06:40:33.890Z,73.70
2022-08-22T06:41:41.674Z,73.72
2022-08-22T06:42:48.137Z,73.78
2022-08-22T06:43:54.905Z,74.02
2022-08-22T06:45:02.828Z,73.90
2022-08-22T06:46:07.695Z,74.17
2022-08-22T06:47:13.797Z,73.99
2022-08-22T06:48:18.542Z,74.03
2022-08-22T06:49:23.559Z,74.11
2022-08-22T06:50:34.534Z,74.17
2022-08-22T06:51:38.915Z,74.21
2022-08-22T06:52:57.803Z,74.30
2022-08-22T06:54:03.809Z,74.48
2022-08-22T06:55:08.581Z,74.38
2022-08-22T06:56:22.414Z,74.47
2022-08-22T06:57:37.606Z,74.58
2022-08-22T06:58:46.144Z,74.72
2022-08-22T06:59:49.747Z,74.81
2022-08-22T07:01:05.658Z,75.10
2022-08-22T07:02:30.154Z,74.95
2022-08-22T07:03:41.550Z,74.92
2022-08-22T07:04:44.813Z,75.03
2022-08-22T07:05:49.625Z,75.17
2022-08-22T07:06:54.671Z,75.12
2022-08-22T07:07:58.170Z,75.24
2022-08-22T07:09:05.743Z,75.30
2022-08-22T07:10:12.998Z,75.38
2022-08-22T07:11:18.772Z,75.30
2022-08-22T07:12:23.469Z,75.38
2022-08-22T07:13:28.552Z,75.43
2022-08-22T07:14:38.749Z,75.48
2022-08-22T07:15:51.105Z,75.51
2022-08-22T07:16:56.585Z,75.60
2022-08-22T07:18:01.371Z,75.55
2022-08-22T07:19:04.718Z,75.58
2022-08-22T07:20:23.574Z,75.68
2022-08-22T07:21:28.314Z,75.66
2022-08-22T07:22:35.276Z,75.63
2022-08-22T07:23:40.812Z,75.75
2022-08-22T07:24:47.608Z,75.81
2022-08-22T07:25:58.355Z,75.83
2022-08-22T07:27:09.007Z,75.95
2022-08-22T07:28:22.363Z,76.12
2022-08-22T07:30:00.623Z,76.16
2022-08-22T07:31:17.899Z,76.28
2022-08-22T07:32:25.543Z,76.32
2022-08-22T07:33:39.770Z,76.31
2022-08-22T07:35:04.534Z,76.32
2022-08-22T07:36:29.589Z,76.39
2022-08-22T07:37:53.113Z,76.37
2022-08-22T07:39:17.547Z,76.38
2022-08-22T07:40:48.581Z,76.50
2022-08-22T07:42:00.641Z,76.37
2022-08-22T07:43:10.753Z,76.45
2022-08-22T07:44:19.148Z,76.43
2022-08-22T07:45:32.247Z,76.47
2022-08-22T07:47:04.731Z,76.46
2022-08-22T07:48:29.052Z,76.48
2022-08-22T07:49:37.615Z,76.48
2022-08-22T07:50:46.227Z,76.56
2022-08-22T07:52:01.854Z,76.54
2022-08-22T07:53:19.082Z,76.72
2022-08-22T07:54:43.279Z,76.60
2022-08-22T07:55:49.478Z,76.81
2022-08-22T07:56:56.874Z,76.69
2022-08-22T07:58:04.324Z,76.73
2022-08-22T07:59:13.220Z,76.75
2022-08-22T08:00:18.551Z,76.61
2022-08-22T08:01:22.934Z,76.61
2022-08-22T08:02:26.209Z,76.53
2022-08-22T08:03:30.707Z,76.41
2022-08-22T08:04:40.058Z,76.45
2022-08-22T08:05:45.234Z,76.43
2022-08-22T08:06:50.929Z,76.39
2022-08-22T08:07:54.902Z,76.44
2022-08-22T08:08:59.896Z,76.55
2022-08-22T08:10:12.483Z,76.40
2022-08-22T08:11:17.399Z,76.38
2022-08-22T08:12:33.447Z,76.29
2022-08-22T08:13:42.502Z,76.13
2022-08-22T08:14:48.762Z,76.05
2022-08-22T08:15:52.279Z,76.17
2022-08-22T08:17:01.404Z,76.15
2022-08-22T08:18:09.188Z,76.09
2022-08-22T08:19:12.998Z,76.10
2022-08-22T08:20:17.841Z,76.17
2022-08-22T08:21:42.879Z,76.25
2022-08-22T08:22:46.535Z,76.13
2022-08-22T08:23:49.784Z,76.21
2022-08-22T08:24:55.563Z,76.36
2022-08-22T08:26:11.821Z,76.37
2022-08-22T08:27:36.989Z,76.45
2022-08-22T08:28:44.421Z,76.51
2022-08-22T08:30:15.607Z,76.47
2022-08-22T08:31:30.530Z,76.44
2022-08-22T08:32:35.308Z,76.52
2022-08-22T08:33:41.108Z,76.52
2022-08-22T08:34:44.661Z,76.32
2022-08-22T08:36:02.735Z,76.35
2022-08-22T08:37:13.810Z,76.33
2022-08-22T08:38:19.108Z,76.37
2022-08-22T08:39:35.099Z,76.41
2022-08-22T08:40:44.474Z,76.46
2022-08-22T08:41:54.752Z,76.49
2022-08-22T08:43:31.038Z,76.45
2022-08-22T08:44:46.233Z,76.66
2022-08-22T08:46:08.233Z,76.65
2022-08-22T08:47:17.004Z,76.71
2022-08-22T08:48:25.888Z,76.65
2022-08-22T08:49:50.632Z,76.58
2022-08-22T08:51:06.023Z,76.64
2022-08-22T08:52:09.158Z,76.53
2022-08-22T08:53:51.371Z,76.42
2022-08-22T08:54:57.460Z,76.36
2022-08-22T08:56:15.622Z,76.28
2022-08-22T08:57:45.729Z,76.18
2022-08-22T08:59:00.585Z,75.95
2022-08-22T09:00:14.594Z,75.64
2022-08-22T09:02:42.632Z,75.61
2022-08-22T09:04:02.583Z,75.60
2022-08-22T09:05:19.577Z,75.56
2022-08-22T09:06:42.590Z,75.57
2022-08-22T09:08:11.671Z,75.45
2022-08-22T09:09:29.541Z,75.31
2022-08-22T09:10:35.379Z,74.92
2022-08-22T09:12:01.763Z,74.26
2022-08-22T09:13:20.049Z,74.52
2022-08-22T09:14:41.467Z,74.44
2022-08-22T09:16:05.517Z,74.39
2022-08-22T09:17:08.764Z,74.46
2022-08-22T09:18:53.293Z,74.09
2022-08-22T09:20:19.481Z,73.78
2022-08-22T09:21:30.563Z,73.75
2022-08-22T09:22:58.635Z,73.41
2022-08-22T09:24:21.268Z,73.50
2022-08-22T09:25:29.652Z,73.52
2022-08-22T09:26:57.080Z,73.51
2022-08-22T09:28:13.989Z,73.55
2022-08-22T09:29:35.587Z,73.62
2022-08-22T09:31:21.932Z,73.71
2022-08-22T09:32:33.913Z,73.90
2022-08-22T09:33:51.836Z,73.75
2022-08-22T09:34:57.112Z,73.38
2022-08-22T09:36:12.227Z,73.29
2022-08-22T09:37:24.068Z,73.25
2022-08-22T09:38:47.902Z,73.11
2022-08-22T09:39:57.936Z,73.12
2022-08-22T09:40:16.149Z,75.69
2022-08-22T09:41:20.620Z,73.04
2022-08-22T09:42:23.758Z,73.22
2022-08-22T09:43:36.771Z,73.24
2022-08-22T09:44:40.782Z,73.19
2022-08-22T09:46:07.067Z,73.08
2022-08-22T09:47:24.562Z,73.24
2022-08-22T09:48:36.708Z,73.24
2022-08-22T09:49:50.563Z,73.38
2022-08-22T09:51:13.557Z,73.24
2022-08-22T09:52:35.712Z,73.30
2022-08-22T09:53:45.709Z,73.31
2022-08-22T09:55:02.439Z,73.39
2022-08-22T09:56:20.993Z,73.35
2022-08-22T09:57:41.290Z,73.41
2022-08-22T09:58:58.002Z,73.48
2022-08-22T10:00:04.076Z,73.52
2022-08-22T10:01:16.415Z,73.57
2022-08-22T10:02:25.403Z,73.56
2022-08-22T10:03:47.751Z,73.56
2022-08-22T10:04:53.913Z,73.66
2022-08-22T10:06:02.388Z,73.68
2022-08-22T10:07:12.179Z,73.68
2022-08-22T10:08:38.763Z,73.67
2022-08-22T10:09:48.968Z,73.72
2022-08-22T10:11:08.287Z,73.80
2022-08-22T10:12:13.282Z,73.74
2022-08-22T10:13:19.320Z,73.90
2022-08-22T10:14:52.681Z,73.88
2022-08-22T10:15:59.703Z,73.75
2022-08-22T10:17:21.905Z,73.67
2022-08-22T10:18:37.623Z,73.62
2022-08-22T10:19:53.133Z,73.67
2022-08-22T10:20:56.090Z,73.51
2022-08-22T10:22:10.138Z,73.52
2022-08-22T10:23:13.232Z,73.35
2022-08-22T10:24:49.898Z,73.51
2022-08-22T10:25:57.149Z,73.54
2022-08-22T10:27:06.371Z,73.41
2022-08-22T10:28:10.604Z,73.48
2022-08-22T10:29:32.709Z,73.47
2022-08-22T10:30:55.083Z,73.52
2022-08-22T10:32:02.848Z,73.61
2022-08-22T10:33:09.149Z,73.67
2022-08-22T10:34:20.648Z,73.72
2022-08-22T10:35:28.973Z,73.74
2022-08-22T10:36:46.348Z,73.72
2022-08-22T10:37:55.198Z,73.68
2022-08-22T10:39:00.330Z,73.63
2022-08-22T10:40:13.404Z,73.73
2022-08-22T10:41:16.584Z,73.58
2022-08-22T10:42:59.465Z,73.51
2022-08-22T10:44:17.695Z,73.62
2022-08-22T10:45:36.930Z,73.62
2022-08-22T10:46:52.282Z,73.71
2022-08-22T10:47:58.200Z,73.62
2022-08-22T10:49:08.058Z,73.59
2022-08-22T10:50:20.158Z,73.52
2022-08-22T10:51:36.705Z,73.61
2022-08-22T10:52:46.100Z,73.56
2022-08-22T10:53:56.148Z,73.51
2022-08-22T10:55:14.817Z,73.49
2022-08-22T10:56:21.704Z,73.35
2022-08-22T10:57:43.205Z,73.14
2022-08-22T10:58:46.284Z,72.91
2022-08-22T10:59:52.162Z,72.81
2022-08-22T11:01:00.236Z,72.89
2022-08-22T11:02:18.815Z,72.86
2022-08-22T11:03:29.019Z,72.59
2022-08-22T11:04:38.958Z,72.44
2022-08-22T11:05:43.690Z,72.50
2022-08-22T11:07:13.369Z,72.52
2022-08-22T11:08:22.344Z,72.37
2022-08-22T11:09:30.292Z,72.21
2022-08-22T11:10:59.245Z,72.16
2022-08-22T11:12:04.403Z,72.03
2022-08-22T11:13:07.832Z,71.96
2022-08-22T11:14:13.708Z,71.81
2022-08-22T11:15:26.234Z,71.87
2022-08-22T11:16:54.969Z,71.85
2022-08-22T11:18:12.903Z,71.71
2022-08-22T11:19:26.469Z,71.75
2022-08-22T11:20:48.590Z,71.45
2022-08-22T11:22:10.598Z,71.00
2022-08-22T11:23:22.845Z,70.93
2022-08-22T11:24:35.285Z,70.82
2022-08-22T11:25:41.486Z,70.63
2022-08-22T11:26:50.134Z,70.28
2022-08-22T11:27:53.627Z,69.79
2022-08-22T11:29:22.702Z,69.54
2022-08-22T11:30:31.724Z,69.72
2022-08-22T11:31:47.286Z,69.92
2022-08-22T11:33:13.759Z,70.04
2022-08-22T11:34:32.074Z,70.16
2022-08-22T11:35:49.853Z,70.19
2022-08-22T11:36:56.755Z,69.98
2022-08-22T11:38:03.060Z,69.37
2022-08-22T11:39:19.420Z,69.33
2022-08-22T11:40:34.378Z,69.61
2022-08-22T11:41:40.345Z,69.73
2022-08-22T11:42:49.437Z,69.73
2022-08-22T11:43:59.605Z,69.78
2022-08-22T11:45:07.452Z,69.98
2022-08-22T11:46:19.794Z,70.17
2022-08-22T11:47:27.136Z,70.12
2022-08-22T11:48:37.709Z,69.93
2022-08-22T11:49:46.702Z,69.72
2022-08-22T11:50:59.716Z,69.80
2022-08-22T11:52:06.944Z,70.08
2022-08-22T11:53:25.405Z,70.21
2022-08-22T11:54:59.398Z,70.15
2022-08-22T11:56:20.691Z,70.15
2022-08-22T11:57:47.336Z,70.09
2022-08-22T11:59:01.513Z,70.32
2022-08-22T12:00:05.959Z,70.60
2022-08-22T12:01:17.523Z,70.67
2022-08-22T12:02:21.547Z,70.75
2022-08-22T12:03:24.549Z,70.94
2022-08-22T12:04:32.822Z,71.00
2022-08-22T12:05:43.305Z,71.03
2022-08-22T12:06:50.307Z,71.07
2022-08-22T12:07:56.861Z,70.96
2022-08-22T12:09:21.307Z,71.08
2022-08-22T12:10:30.281Z,71.11
2022-08-22T12:11:44.904Z,71.11
2022-08-22T12:12:48.730Z,71.22
2022-08-22T12:14:06.129Z,71.21
2022-08-22T12:15:21.577Z,71.32
2022-08-22T12:16:37.817Z,71.53
2022-08-22T12:17:55.250Z,71.55
2022-08-22T12:19:09.428Z,71.65
2022-08-22T12:20:17.167Z,71.80
2022-08-22T12:21:40.787Z,71.96
2022-08-22T12:22:56.509Z,72.22
2022-08-22T12:24:26.217Z,72.29
2022-08-22T12:25:32.556Z,72.43
2022-08-22T12:27:08.267Z,72.55
2022-08-22T12:28:29.787Z,72.70
2022-08-22T12:29:55.939Z,72.90
2022-08-22T12:31:17.022Z,72.92
2022-08-22T12:32:27.799Z,73.06
2022-08-22T12:33:39.794Z,73.09
2022-08-22T12:34:51.785Z,73.15
2022-08-22T12:36:17.868Z,73.55
2022-08-22T12:37:44.908Z,73.41
2022-08-22T12:39:04.479Z,73.53
2022-08-22T12:40:13.812Z,73.57
2022-08-22T12:41:27.979Z,73.78
2022-08-22T12:42:41.929Z,73.79
2022-08-22T12:43:49.486Z,74.00
2022-08-22T12:45:05.127Z,74.12
2022-08-22T12:46:13.387Z,74.12
2022-08-22T12:47:25.481Z,74.10
2022-08-22T12:48:47.601Z,74.31
2022-08-22T12:49:59.125Z,74.39
2022-08-22T12:51:18.325Z,74.40
2022-08-22T12:52:30.220Z,74.49
2022-08-22T12:53:33.206Z,74.49
2022-08-22T12:54:43.978Z,74.46
2022-08-22T12:55:49.853Z,74.47
2022-08-22T12:57:05.346Z,74.64
2022-08-22T12:58:36.577Z,74.95
2022-08-22T12:59:43.432Z,75.11
2022-08-22T13:00:48.709Z,75.07
2022-08-22T13:01:56.926Z,75.25
2022-08-22T13:03:02.969Z,75.33
2022-08-22T13:04:12.897Z,75.30
2022-08-22T13:05:40.566Z,75.47
2022-08-22T13:06:51.619Z,75.76
2022-08-22T13:08:01.209Z,76.00
2022-08-22T13:09:18.806Z,76.10
2022-08-22T13:10:38.313Z,76.30
2022-08-22T13:11:42.871Z,76.41
2022-08-22T13:12:47.894Z,76.59
2022-08-22T13:13:56.729Z,76.70
2022-08-22T13:15:22.136Z,76.86
2022-08-22T13:16:34.908Z,77.03
2022-08-22T13:17:43.384Z,77.46
2022-08-22T13:19:13.434Z,77.39
2022-08-22T13:20:37.029Z,77.46
2022-08-22T13:21:44.106Z,77.41
2022-08-22T13:22:48.016Z,77.32
2022-08-22T13:23:56.259Z,77.41
2022-08-22T13:24:59.211Z,77.51
2022-08-22T13:26:02.306Z,77.52
2022-08-22T13:27:22.564Z,77.83
2022-08-22T13:28:27.392Z,77.78
2022-08-22T13:29:42.851Z,77.87
2022-08-22T13:30:46.690Z,78.07
2022-08-22T13:31:53.201Z,77.99
2022-08-22T13:33:11.026Z,78.00
2022-08-22T13:34:34.833Z,78.03
2022-08-22T13:35:51.832Z,78.20
2022-08-22T13:36:58.768Z,78.07
2022-08-22T13:38:07.253Z,78.16
2022-08-22T13:39:15.354Z,78.15
2022-08-22T13:40:27.617Z,78.21
2022-08-22T13:41:38.248Z,78.12
2022-08-22T13:42:49.361Z,78.09
2022-08-22T13:43:59.904Z,78.15
2022-08-22T13:45:05.367Z,78.14
2022-08-22T13:46:10.947Z,78.28
2022-08-22T13:47:16.074Z,78.25
2022-08-22T13:48:22.590Z,78.28
2022-08-22T13:49:39.889Z,78.30
2022-08-22T13:51:01.116Z,78.33
2022-08-22T13:52:29.090Z,78.37
2022-08-22T13:53:41.569Z,78.43
2022-08-22T13:54:52.208Z,78.63
2022-08-22T13:56:00.044Z,78.81
2022-08-22T13:57:23.972Z,78.76
2022-08-22T13:58:42.278Z,78.78
2022-08-22T14:00:06.272Z,78.82
2022-08-22T14:01:20.333Z,78.69
2022-08-22T14:02:30.777Z,78.76
2022-08-22T14:03:39.782Z,78.81
2022-08-22T14:04:44.220Z,78.83
2022-08-22T14:05:53.201Z,78.86
2022-08-22T14:06:59.259Z,79.03
2022-08-22T14:08:20.455Z,79.21
2022-08-22T14:09:38.824Z,79.08
2022-08-22T14:10:54.999Z,79.08
2022-08-22T14:12:12.137Z,79.06
2022-08-22T14:13:31.180Z,79.03
2022-08-22T14:14:36.633Z,78.99
2022-08-22T14:15:45.294Z,79.02
2022-08-22T14:16:51.493Z,79.05
2022-08-22T14:18:10.743Z,79.08
2022-08-22T14:19:53.323Z,79.31
2022-08-22T14:21:17.831Z,79.31
2022-08-22T14:22:31.716Z,79.29
2022-08-22T14:23:35.659Z,79.50
2022-08-22T14:24:45.630Z,79.40
2022-08-22T14:25:51.402Z,79.38
2022-08-22T14:27:06.597Z,79.57
2022-08-22T14:28:20.914Z,79.61
2022-08-22T14:29:26.430Z,79.82
2022-08-22T14:30:31.993Z,79.78
2022-08-22T14:31:35.875Z,79.95
2022-08-22T14:32:42.047Z,79.98
2022-08-22T14:34:10.480Z,79.99
2022-08-22T14:35:35.122Z,80.11
2022-08-22T14:36:55.013Z,80.12
2022-08-22T14:38:02.060Z,79.97
2022-08-22T14:39:12.071Z,79.98
2022-08-22T14:40:30.268Z,79.96
2022-08-22T14:41:52.606Z,80.01
2022-08-22T14:43:07.892Z,79.99
2022-08-22T14:44:19.664Z,80.09
2022-08-22T14:45:28.549Z,80.06
2022-08-22T14:46:44.944Z,79.96
2022-08-22T14:48:14.103Z,79.98
2022-08-22T14:49:48.904Z,79.98
2022-08-22T14:50:54.748Z,79.96
2022-08-22T14:52:01.976Z,79.97
2022-08-22T14:53:09.765Z,79.95
2022-08-22T14:54:21.419Z,80.09
2022-08-22T14:55:27.224Z,80.22
2022-08-22T14:56:36.846Z,80.12
2022-08-22T14:57:45.862Z,80.21
2022-08-22T14:58:56.041Z,80.29
2022-08-22T14:59:59.273Z,80.26
2022-08-22T15:01:10.592Z,80.34
2022-08-22T15:02:23.327Z,80.22
2022-08-22T15:03:38.039Z,80.36
2022-08-22T15:04:46.084Z,80.28
2022-08-22T15:05:52.624Z,80.42
2022-08-22T15:06:58.542Z,80.35
2022-08-22T15:08:01.829Z,80.37
2022-08-22T15:09:15.495Z,80.52
2022-08-22T15:10:27.863Z,80.58
2022-08-22T15:11:36.315Z,80.54
2022-08-22T15:12:49.941Z,80.46
2022-08-22T15:13:55.679Z,80.41
2022-08-22T15:15:00.679Z,80.48
2022-08-22T15:16:15.026Z,80.51
2022-08-22T15:17:44.183Z,80.63
2022-08-22T15:18:51.942Z,80.80
2022-08-22T15:20:05.175Z,80.82
2022-08-22T15:21:30.300Z,80.80
2022-08-22T15:22:35.156Z,80.84
2022-08-22T15:23:45.129Z,80.98
2022-08-22T15:24:58.115Z,80.95
2022-08-22T15:26:03.731Z,81.09
2022-08-22T15:27:07.122Z,81.09
2022-08-22T15:28:14.458Z,81.24
2022-08-22T15:29:32.159Z,81.20
2022-08-22T15:30:44.482Z,81.21
2022-08-22T15:31:52.150Z,81.15